createdAt,value
2016-05-17T00:00:51.422Z,0
2016-05-17T00:01:51.378Z,0
2016-05-17T00:02:51.209Z,0
2016-05-17T00:03:51.305Z,0
2016-05-17T00:04:51.276Z,0
2016-05-17T00:05:51.091Z,0
2016-05-17T00:06:52.485Z,0
2016-05-17T00:07:51.175Z,0
2016-05-17T00:08:51.005Z,0
2016-05-17T00:09:51.102Z,0
2016-05-17T00:10:50.746Z,0
2016-05-17T00:11:50.858Z,0
2016-05-17T00:12:50.814Z,0
2016-05-17T00:13:50.941Z,0
2016-05-17T00:14:50.741Z,0
2016-05-17T00:15:50.868Z,0
2016-05-17T00:16:50.683Z,0
2016-05-17T00:17:50.811Z,0
2016-05-17T00:18:50.610Z,0
2016-05-17T00:19:50.724Z,0
2016-05-17T00:20:50.694Z,0
2016-05-17T00:21:50.994Z,0
2016-05-17T00:22:50.622Z,0
2016-05-17T00:23:50.593Z,0
2016-05-17T00:24:50.237Z,0
2016-05-17T00:25:50.348Z,0
2016-05-17T00:26:50.335Z,0
2016-05-17T00:27:50.448Z,0
2016-05-17T00:28:50.091Z,0
2016-05-17T00:29:50.375Z,0
2016-05-17T00:30:50.315Z,0
2016-05-17T00:31:50.270Z,0
2016-05-17T00:32:50.243Z,0
2016-05-17T00:33:50.058Z,0
2016-05-17T00:34:50.028Z,0
2016-05-17T00:35:49.984Z,0
2016-05-17T00:36:50.706Z,0
2016-05-17T00:37:50.115Z,0
2016-05-17T00:38:50.025Z,0
2016-05-17T00:39:49.995Z,0
2016-05-17T00:40:49.811Z,0
2016-05-17T00:41:49.938Z,0
2016-05-17T00:42:49.878Z,0
2016-05-17T00:43:49.866Z,0
2016-05-17T00:44:49.806Z,0
2016-05-17T00:45:49.778Z,0
2016-05-17T00:46:49.749Z,0
2016-05-17T00:47:49.564Z,0
2016-05-17T00:48:49.661Z,0
2016-05-17T00:49:49.507Z,0
2016-05-17T00:50:49.431Z,0
2016-05-17T00:51:49.277Z,0
2016-05-17T00:52:49.530Z,0
2016-05-17T00:53:49.487Z,0
2016-05-17T00:54:49.442Z,0
2016-05-17T00:55:49.257Z,0
2016-05-17T00:56:49.229Z,0
2016-05-17T00:57:49.356Z,0
2016-05-17T00:58:49.312Z,0
2016-05-17T00:59:49.284Z,0
2016-05-17T01:00:49.287Z,0
2016-05-17T01:01:49.196Z,0
2016-05-17T01:02:49.182Z,0
2016-05-17T01:03:48.982Z,0
2016-05-17T01:04:48.922Z,0
2016-05-17T01:05:49.050Z,0
2016-05-17T01:06:48.896Z,0
2016-05-17T01:07:48.993Z,0
2016-05-17T01:08:48.964Z,0
2016-05-17T01:09:48.920Z,0
2016-05-17T01:10:48.564Z,0
2016-05-17T01:11:48.550Z,0
2016-05-17T01:12:48.803Z,0
2016-05-17T01:13:48.759Z,0
2016-05-17T01:14:48.589Z,0
2016-05-17T01:15:48.702Z,0
2016-05-17T01:16:48.345Z,0
2016-05-17T01:17:48.473Z,0
2016-05-17T01:18:48.585Z,0
2016-05-17T01:19:48.557Z,0
2016-05-17T01:20:48.200Z,0
2016-05-17T01:21:48.483Z,0
2016-05-17T01:22:48.299Z,0
2016-05-17T01:23:48.410Z,0
2016-05-17T01:24:48.366Z,0
2016-05-17T01:25:48.182Z,0
2016-05-17T01:26:48.294Z,0
2016-05-17T01:27:48.249Z,0
2016-05-17T01:28:48.221Z,0
2016-05-17T01:29:48.223Z,0
2016-05-17T01:30:47.992Z,0
2016-05-17T01:31:47.964Z,0
2016-05-17T01:32:48.122Z,0
2016-05-17T01:33:48.048Z,0
2016-05-17T01:34:48.050Z,0
2016-05-17T01:35:47.818Z,0
2016-05-17T01:36:47.946Z,0
2016-05-17T01:37:47.745Z,0
2016-05-17T01:38:47.717Z,0
2016-05-17T01:39:47.672Z,0
2016-05-17T01:40:47.784Z,0
2016-05-17T01:41:47.616Z,0
2016-05-17T01:42:47.712Z,0
2016-05-17T01:43:47.667Z,0
2016-05-17T01:44:47.358Z,0
2016-05-17T01:45:47.610Z,0
2016-05-17T01:46:47.566Z,0
2016-05-17T01:47:47.538Z,0
2016-05-17T01:48:47.509Z,0
2016-05-17T01:49:47.450Z,0
2016-05-17T01:50:47.421Z,0
2016-05-17T01:51:47.799Z,0
2016-05-17T01:52:47.364Z,0
2016-05-17T01:53:47.163Z,0
2016-05-17T01:54:47.276Z,0
2016-05-17T01:55:47.231Z,0
2016-05-17T01:56:47.202Z,0
2016-05-17T01:57:47.174Z,0
2016-05-17T01:58:47.146Z,0
2016-05-17T01:59:47.117Z,0
2016-05-17T02:00:47.073Z,0
2016-05-17T02:01:46.873Z,0
2016-05-17T02:02:46.828Z,0
2016-05-17T02:03:46.956Z,0
2016-05-17T02:04:46.927Z,0
2016-05-17T02:05:46.884Z,0
2016-05-17T02:06:47.151Z,0
2016-05-17T02:07:46.811Z,0
2016-05-17T02:08:46.767Z,0
2016-05-17T02:09:46.737Z,0
2016-05-17T02:10:46.553Z,0
2016-05-17T02:11:46.493Z,0
2016-05-17T02:12:46.620Z,0
2016-05-17T02:13:46.608Z,0
2016-05-17T02:14:46.564Z,0
2016-05-17T02:15:46.503Z,0
2016-05-17T02:16:46.491Z,0
2016-05-17T02:17:46.291Z,0
2016-05-17T02:18:46.402Z,0
2016-05-17T02:19:46.234Z,0
2016-05-17T02:20:46.345Z,0
2016-05-17T02:21:46.488Z,0
2016-05-17T02:22:46.116Z,0
2016-05-17T02:23:46.244Z,0
2016-05-17T02:24:46.200Z,0
2016-05-17T02:25:46.171Z,0
2016-05-17T02:26:46.112Z,0
2016-05-17T02:27:46.083Z,0
2016-05-17T02:28:46.054Z,0
2016-05-17T02:29:45.870Z,0
2016-05-17T02:30:45.982Z,0
2016-05-17T02:31:46.001Z,0
2016-05-17T02:32:45.440Z,0
2016-05-17T02:33:45.552Z,0
2016-05-17T02:34:45.758Z,0
2016-05-17T02:35:45.792Z,0
2016-05-17T02:36:45.638Z,0
2016-05-17T02:37:45.829Z,0
2016-05-17T02:38:45.581Z,0
2016-05-17T02:39:45.506Z,0
2016-05-17T02:40:45.759Z,0
2016-05-17T02:41:45.573Z,0
2016-05-17T02:42:45.389Z,0
2016-05-17T02:43:45.516Z,0
2016-05-17T02:44:45.316Z,0
2016-05-17T02:45:45.428Z,0
2016-05-17T02:46:45.259Z,0
2016-05-17T02:47:45.372Z,0
2016-05-17T02:48:45.186Z,0
2016-05-17T02:49:45.298Z,0
2016-05-17T02:50:45.254Z,0
2016-05-17T02:51:45.273Z,0
2016-05-17T02:52:45.182Z,0
2016-05-17T02:53:44.981Z,0
2016-05-17T02:54:44.952Z,0
2016-05-17T02:55:45.065Z,0
2016-05-17T02:56:44.896Z,0
2016-05-17T02:57:45.007Z,0
2016-05-17T02:58:44.807Z,0
2016-05-17T02:59:44.935Z,0
2016-05-17T03:00:44.891Z,0
2016-05-17T03:01:44.706Z,0
2016-05-17T03:02:44.834Z,0
2016-05-17T03:03:44.773Z,0
2016-05-17T03:04:44.745Z,0
2016-05-17T03:05:44.717Z,0
2016-05-17T03:06:44.672Z,0
2016-05-17T03:07:44.643Z,0
2016-05-17T03:08:44.443Z,0
2016-05-17T03:09:44.555Z,0
2016-05-17T03:10:44.526Z,0
2016-05-17T03:11:44.498Z,0
2016-05-17T03:12:44.470Z,0
2016-05-17T03:13:44.425Z,0
2016-05-17T03:14:44.397Z,0
2016-05-17T03:15:44.180Z,0
2016-05-17T03:16:44.309Z,0
2016-05-17T03:17:44.124Z,0
2016-05-17T03:18:44.267Z,0
2016-05-17T03:19:44.223Z,0
2016-05-17T03:20:44.147Z,0
2016-05-17T03:21:44.149Z,0
2016-05-17T03:22:44.074Z,0
2016-05-17T03:23:43.905Z,0
2016-05-17T03:24:44.018Z,0
2016-05-17T03:25:43.988Z,0
2016-05-17T03:26:43.819Z,0
2016-05-17T03:27:43.916Z,0
2016-05-17T03:28:43.919Z,0
2016-05-17T03:29:43.937Z,0
2016-05-17T03:30:43.659Z,0
2016-05-17T03:31:43.770Z,0
2016-05-17T03:32:43.743Z,0
2016-05-17T03:33:43.543Z,0
2016-05-17T03:34:43.513Z,0
2016-05-17T03:35:43.485Z,0
2016-05-17T03:36:43.518Z,0
2016-05-17T03:37:43.553Z,0
2016-05-17T03:38:43.367Z,0
2016-05-17T03:39:43.543Z,0
2016-05-17T03:40:43.451Z,0
2016-05-17T03:41:43.423Z,0
2016-05-17T03:42:43.378Z,0
2016-05-17T03:43:43.334Z,0
2016-05-17T03:44:43.322Z,0
2016-05-17T03:45:43.120Z,5
2016-05-17T03:46:43.248Z,5
2016-05-17T03:47:43.219Z,5
2016-05-17T03:48:43.161Z,5
2016-05-17T03:49:43.116Z,5
2016-05-17T03:50:42.930Z,5
2016-05-17T03:51:43.325Z,5
2016-05-17T03:52:42.999Z,5
2016-05-17T03:53:42.986Z,5
2016-05-17T03:54:42.941Z,10
2016-05-17T03:55:42.913Z,10
2016-05-17T03:56:42.916Z,10
2016-05-17T03:57:42.685Z,10
2016-05-17T03:58:42.812Z,10
2016-05-17T03:59:42.752Z,10
2016-05-17T04:00:42.724Z,10
2016-05-17T04:01:42.538Z,15
2016-05-17T04:02:42.729Z,15
2016-05-17T04:03:42.622Z,15
2016-05-17T04:04:42.579Z,15
2016-05-17T04:05:42.394Z,15
2016-05-17T04:06:42.412Z,15
2016-05-17T04:07:42.493Z,15
2016-05-17T04:08:42.276Z,20
2016-05-17T04:09:42.107Z,20
2016-05-17T04:10:42.375Z,20
2016-05-17T04:11:42.331Z,20
2016-05-17T04:12:42.303Z,20
2016-05-17T04:13:42.275Z,25
2016-05-17T04:14:42.089Z,25
2016-05-17T04:15:42.186Z,25
2016-05-17T04:16:42.158Z,30
2016-05-17T04:17:42.222Z,30
2016-05-17T04:18:41.928Z,30
2016-05-17T04:19:42.055Z,35
2016-05-17T04:20:42.012Z,35
2016-05-17T04:21:41.797Z,35
2016-05-17T04:22:41.767Z,40
2016-05-17T04:23:41.911Z,40
2016-05-17T04:24:41.882Z,45
2016-05-17T04:25:41.838Z,45
2016-05-17T04:26:41.637Z,45
2016-05-17T04:27:41.765Z,45
2016-05-17T04:28:41.721Z,45
2016-05-17T04:29:41.536Z,55
2016-05-17T04:30:41.648Z,50
2016-05-17T04:31:41.291Z,55
2016-05-17T04:32:41.576Z,60
2016-05-17T04:33:41.546Z,65
2016-05-17T04:34:41.377Z,65
2016-05-17T04:35:41.473Z,70
2016-05-17T04:36:41.493Z,70
2016-05-17T04:37:41.246Z,75
2016-05-17T04:38:41.201Z,75
2016-05-17T04:39:41.204Z,75
2016-05-17T04:40:41.143Z,75
2016-05-17T04:41:41.240Z,75
2016-05-17T04:42:41.070Z,80
2016-05-17T04:43:41.183Z,80
2016-05-17T04:44:40.983Z,80
2016-05-17T04:45:40.954Z,80
2016-05-17T04:46:41.082Z,80
2016-05-17T04:47:41.037Z,80
2016-05-17T04:48:40.837Z,80
2016-05-17T04:49:40.808Z,85
2016-05-17T04:50:40.936Z,85
2016-05-17T04:51:41.329Z,85
2016-05-17T04:52:40.848Z,90
2016-05-17T04:53:40.820Z,90
2016-05-17T04:54:40.775Z,90
2016-05-17T04:55:40.747Z,90
2016-05-17T04:56:40.561Z,90
2016-05-17T04:57:40.518Z,90
2016-05-17T04:58:40.661Z,95
2016-05-17T04:59:40.601Z,95
2016-05-17T05:00:40.572Z,95
2016-05-17T05:01:40.529Z,100
2016-05-17T05:02:40.500Z,105
2016-05-17T05:03:40.534Z,115
2016-05-17T05:04:40.427Z,125
2016-05-17T05:05:40.242Z,125
2016-05-17T05:06:40.635Z,130
2016-05-17T05:07:40.309Z,130
2016-05-17T05:08:40.297Z,135
2016-05-17T05:09:40.118Z,140
2016-05-17T05:10:40.273Z,140
2016-05-17T05:11:40.288Z,140
2016-05-17T05:12:39.973Z,145
2016-05-17T05:13:40.300Z,150
2016-05-17T05:14:40.348Z,155
2016-05-17T05:15:40.272Z,165
2016-05-17T05:16:40.104Z,170
2016-05-17T05:17:39.949Z,180
2016-05-17T05:18:40.218Z,190
2016-05-17T05:19:40.028Z,200
2016-05-17T05:20:40.161Z,275
2016-05-17T05:21:40.013Z,200
2016-05-17T05:22:40.099Z,205
2016-05-17T05:23:39.903Z,205
2016-05-17T05:24:40.050Z,205
2016-05-17T05:25:40.055Z,205
2016-05-17T05:26:39.966Z,205
2016-05-17T05:27:39.783Z,215
2016-05-17T05:28:39.757Z,220
2016-05-17T05:29:39.714Z,225
2016-05-17T05:30:39.842Z,225
2016-05-17T05:31:39.657Z,230
2016-05-17T05:32:39.771Z,245
2016-05-17T05:33:39.743Z,240
2016-05-17T05:34:39.714Z,250
2016-05-17T05:35:39.671Z,250
2016-05-17T05:36:39.487Z,255
2016-05-17T05:37:39.630Z,265
2016-05-17T05:38:39.571Z,280
2016-05-17T05:39:40.215Z,585
2016-05-17T05:40:39.498Z,275
2016-05-17T05:41:39.470Z,290
2016-05-17T05:42:39.410Z,280
2016-05-17T05:43:39.397Z,285
2016-05-17T05:44:39.212Z,300
2016-05-17T05:45:39.309Z,315
2016-05-17T05:46:39.140Z,315
2016-05-17T05:47:39.267Z,320
2016-05-17T05:48:39.240Z,320
2016-05-17T05:49:39.022Z,325
2016-05-17T05:50:38.853Z,340
2016-05-17T05:51:39.747Z,360
2016-05-17T05:52:39.093Z,345
2016-05-17T05:53:39.049Z,340
2016-05-17T05:54:39.021Z,345
2016-05-17T05:55:38.836Z,355
2016-05-17T05:56:38.854Z,365
2016-05-17T05:57:38.779Z,375
2016-05-17T05:58:38.906Z,400
2016-05-17T05:59:38.706Z,390
2016-05-17T06:00:38.850Z,400
2016-05-17T06:01:38.820Z,515
2016-05-17T06:02:39.402Z,450
2016-05-17T06:03:39.576Z,430
2016-05-17T06:04:39.391Z,450
2016-05-17T06:05:39.316Z,540
2016-05-17T06:06:39.302Z,510
2016-05-17T06:07:39.524Z,695
2016-05-17T06:08:39.355Z,555
2016-05-17T06:09:39.186Z,1210
2016-05-17T06:10:39.313Z,990
2016-05-17T06:11:39.269Z,585
2016-05-17T06:12:39.084Z,535
2016-05-17T06:13:39.212Z,520
2016-05-17T06:14:39.168Z,500
2016-05-17T06:15:38.202Z,480
2016-05-17T06:16:39.110Z,475
2016-05-17T06:17:39.082Z,480
2016-05-17T06:18:38.913Z,495
2016-05-17T06:19:39.009Z,1035
2016-05-17T06:20:38.982Z,705
2016-05-17T06:21:38.562Z,460
2016-05-17T06:22:39.142Z,435
2016-05-17T06:23:38.926Z,430
2016-05-17T06:24:38.726Z,430
2016-05-17T06:25:38.839Z,435
2016-05-17T06:26:38.654Z,445
2016-05-17T06:27:38.626Z,465
2016-05-17T06:28:38.752Z,920
2016-05-17T06:29:38.725Z,480
2016-05-17T06:30:52.789Z,480
2016-05-17T06:31:38.651Z,485
2016-05-17T06:32:38.623Z,505
2016-05-17T06:33:38.470Z,550
2016-05-17T06:34:38.581Z,915
2016-05-17T06:35:37.912Z,590
2016-05-17T06:36:38.478Z,570
2016-05-17T06:37:38.480Z,580
2016-05-17T06:38:38.452Z,560
2016-05-17T06:39:38.172Z,570
2016-05-17T06:40:38.410Z,600
2016-05-17T06:41:37.725Z,640
2016-05-17T06:42:38.338Z,625
2016-05-17T06:43:37.683Z,675
2016-05-17T06:44:38.265Z,810
2016-05-17T06:45:37.752Z,720
2016-05-17T06:46:38.207Z,800
2016-05-17T06:47:37.444Z,905
2016-05-17T06:48:37.993Z,895
2016-05-17T06:49:38.137Z,785
2016-05-17T06:50:38.327Z,1125
2016-05-17T06:51:38.080Z,1225
2016-05-17T06:52:37.411Z,1665
2016-05-17T06:53:37.867Z,1795
2016-05-17T06:54:37.995Z,1845
2016-05-17T06:55:37.965Z,1740
2016-05-17T06:56:37.953Z,1895
2016-05-17T06:57:37.892Z,1175
2016-05-17T06:58:37.881Z,685
2016-05-17T06:59:37.883Z,590
2016-05-17T07:00:37.854Z,555
2016-05-17T07:01:37.013Z,590
2016-05-17T07:02:36.984Z,650
2016-05-17T07:03:37.769Z,800
2016-05-17T07:04:37.786Z,1470
2016-05-17T07:05:37.727Z,1010
2016-05-17T07:06:37.933Z,375
2016-05-17T07:07:37.061Z,300
2016-05-17T07:08:37.485Z,290
2016-05-17T07:09:37.613Z,295
2016-05-17T07:10:37.584Z,340
2016-05-17T07:11:36.774Z,390
2016-05-17T07:12:37.386Z,440
2016-05-17T07:13:37.514Z,445
2016-05-17T07:14:37.485Z,430
2016-05-17T07:15:37.285Z,420
2016-05-17T07:16:37.429Z,450
2016-05-17T07:17:37.682Z,600
2016-05-17T07:18:37.371Z,605
2016-05-17T07:19:37.187Z,720
2016-05-17T07:20:36.720Z,1885
2016-05-17T07:21:37.535Z,1750
2016-05-17T07:22:37.257Z,1510
2016-05-17T07:23:37.244Z,605
2016-05-17T07:24:37.263Z,510
2016-05-17T07:25:37.031Z,470
2016-05-17T07:26:37.174Z,445
2016-05-17T07:27:37.146Z,420
2016-05-17T07:28:36.492Z,370
2016-05-17T07:29:37.104Z,355
2016-05-17T07:30:37.059Z,350
2016-05-17T07:31:36.891Z,340
2016-05-17T07:32:37.019Z,340
2016-05-17T07:33:37.631Z,385
2016-05-17T07:34:36.164Z,455
2016-05-17T07:35:36.933Z,490
2016-05-17T07:36:36.764Z,570
2016-05-17T07:37:36.907Z,1835
2016-05-17T07:38:36.863Z,1195
2016-05-17T07:39:36.834Z,610
2016-05-17T07:40:36.368Z,560
2016-05-17T07:41:36.621Z,580
2016-05-17T07:42:36.608Z,665
2016-05-17T07:43:36.548Z,785
2016-05-17T07:44:36.738Z,820
2016-05-17T07:45:36.662Z,1205
2016-05-17T07:46:35.869Z,790
2016-05-17T07:47:36.513Z,1770
2016-05-17T07:48:36.843Z,1805
2016-05-17T07:49:36.565Z,805
2016-05-17T07:50:36.535Z,705
2016-05-17T07:51:36.382Z,800
2016-05-17T07:52:36.916Z,920
2016-05-17T07:53:36.465Z,925
2016-05-17T07:54:36.296Z,910
2016-05-17T07:55:36.408Z,865
2016-05-17T07:56:35.834Z,920
2016-05-17T07:57:35.632Z,980
2016-05-17T07:58:35.714Z,815
2016-05-17T07:59:36.170Z,975
2016-05-17T08:00:36.359Z,895
2016-05-17T08:01:36.097Z,715
2016-05-17T08:02:36.225Z,735
2016-05-17T08:03:36.211Z,590
2016-05-17T08:04:36.183Z,520
2016-05-17T08:05:36.153Z,560
2016-05-17T08:06:50.251Z,740
2016-05-17T08:07:36.269Z,875
2016-05-17T08:08:35.302Z,900
2016-05-17T08:09:35.290Z,755
2016-05-17T08:10:35.886Z,965
2016-05-17T08:11:36.030Z,2150
2016-05-17T08:12:36.205Z,1030
2016-05-17T08:13:35.816Z,990
2016-05-17T08:14:35.928Z,775
2016-05-17T08:15:35.946Z,875
2016-05-17T08:16:35.918Z,525
2016-05-17T08:17:35.593Z,395
2016-05-17T08:18:35.204Z,325
2016-05-17T08:19:35.660Z,280
2016-05-17T08:20:35.804Z,260
2016-05-17T08:21:35.165Z,275
2016-05-17T08:22:35.247Z,315
2016-05-17T08:23:35.093Z,350
2016-05-17T08:24:34.909Z,305
2016-05-17T08:25:35.051Z,260
2016-05-17T08:26:35.648Z,250
2016-05-17T08:27:35.463Z,235
2016-05-17T08:28:35.450Z,220
2016-05-17T08:29:34.937Z,205
2016-05-17T08:30:35.425Z,225
2016-05-17T08:31:34.881Z,245
2016-05-17T08:32:35.492Z,260
2016-05-17T08:33:35.495Z,295
2016-05-17T08:34:35.436Z,355
2016-05-17T08:35:34.767Z,450
2016-05-17T08:36:35.628Z,565
2016-05-17T08:37:35.365Z,795
2016-05-17T08:38:35.337Z,770
2016-05-17T08:39:35.308Z,860
2016-05-17T08:40:35.139Z,875
2016-05-17T08:41:35.267Z,735
2016-05-17T08:42:35.207Z,530
2016-05-17T08:43:35.303Z,570
2016-05-17T08:44:35.165Z,550
2016-05-17T08:45:35.121Z,500
2016-05-17T08:46:35.108Z,470
2016-05-17T08:47:35.080Z,470
2016-05-17T08:48:34.441Z,480
2016-05-17T08:49:34.429Z,470
2016-05-17T08:50:35.290Z,470
2016-05-17T08:51:36.012Z,475
2016-05-17T08:52:34.952Z,465
2016-05-17T08:53:34.955Z,480
2016-05-17T08:54:34.755Z,485
2016-05-17T08:55:34.882Z,465
2016-05-17T08:56:34.698Z,420
2016-05-17T08:57:34.169Z,390
2016-05-17T08:58:34.625Z,380
2016-05-17T08:59:34.768Z,380
2016-05-17T09:00:34.646Z,365
2016-05-17T09:01:34.226Z,320
2016-05-17T09:02:34.901Z,290
2016-05-17T09:03:34.638Z,260
2016-05-17T09:04:33.984Z,225
2016-05-17T09:05:33.800Z,210
2016-05-17T09:06:33.567Z,200
2016-05-17T09:07:34.367Z,195
2016-05-17T09:08:33.698Z,225
2016-05-17T09:09:33.545Z,330
2016-05-17T09:10:33.658Z,460
2016-05-17T09:11:34.160Z,610
2016-05-17T09:12:34.413Z,595
2016-05-17T09:13:34.071Z,600
2016-05-17T09:14:34.325Z,600
2016-05-17T09:15:34.171Z,645
2016-05-17T09:16:34.283Z,745
2016-05-17T09:17:34.254Z,795
2016-05-17T09:18:34.085Z,715
2016-05-17T09:19:34.196Z,750
2016-05-17T09:20:34.168Z,1035
2016-05-17T09:21:35.062Z,800
2016-05-17T09:22:33.955Z,1010
2016-05-17T09:23:34.099Z,910
2016-05-17T09:24:34.304Z,1265
2016-05-17T09:25:33.869Z,1160
2016-05-17T09:26:33.872Z,1125
2016-05-17T09:27:33.984Z,2110
2016-05-17T09:28:33.956Z,1535
2016-05-17T09:29:33.959Z,1435
2016-05-17T09:30:33.898Z,1235
2016-05-17T09:31:33.885Z,1910
2016-05-17T09:32:33.076Z,1020
2016-05-17T09:33:33.829Z,1015
2016-05-17T09:34:33.800Z,985
2016-05-17T09:36:33.540Z,1295
2016-05-17T09:37:34.761Z,1140
2016-05-17T09:38:33.545Z,1225
2016-05-17T09:39:33.704Z,1640
2016-05-17T09:40:33.659Z,3100
2016-05-17T09:41:33.678Z,840
2016-05-17T09:42:33.619Z,740
2016-05-17T09:43:33.605Z,655
2016-05-17T09:44:33.561Z,625
2016-05-17T09:45:33.547Z,660
2016-05-17T09:46:33.535Z,900
2016-05-17T09:47:33.194Z,860
2016-05-17T09:48:33.462Z,870
2016-05-17T09:49:33.433Z,895
2016-05-17T09:50:33.436Z,995
2016-05-17T09:51:32.299Z,880
2016-05-17T09:52:33.364Z,965
2016-05-17T09:53:33.195Z,1055
2016-05-17T09:54:32.696Z,1035
2016-05-17T09:55:33.310Z,955
2016-05-17T09:56:33.282Z,1420
2016-05-17T09:57:33.252Z,1310
2016-05-17T09:58:32.474Z,915
2016-05-17T09:59:33.210Z,685
2016-05-17T10:00:32.542Z,650
2016-05-17T10:01:33.154Z,995
2016-05-17T10:02:33.000Z,1005
2016-05-17T10:03:33.112Z,2160
2016-05-17T10:04:32.912Z,1455
2016-05-17T10:05:46.789Z,1075
2016-05-17T10:06:33.417Z,860
2016-05-17T10:07:32.857Z,1240
2016-05-17T10:08:33.017Z,1170
2016-05-17T10:09:32.331Z,2050
2016-05-17T10:10:32.990Z,1245
2016-05-17T10:11:32.742Z,1200
2016-05-17T10:12:32.887Z,665
2016-05-17T10:13:32.717Z,625
2016-05-17T10:14:32.923Z,845
2016-05-17T10:15:32.895Z,855
2016-05-17T10:16:32.631Z,735
2016-05-17T10:17:32.838Z,665
2016-05-17T10:18:32.762Z,605
2016-05-17T10:19:32.764Z,575
2016-05-17T10:20:32.549Z,885
2016-05-17T10:21:32.911Z,1085
2016-05-17T10:22:32.835Z,1055
2016-05-17T10:23:31.869Z,1010
2016-05-17T10:24:32.606Z,1090
2016-05-17T10:25:32.625Z,870
2016-05-17T10:26:32.596Z,735
2016-05-17T10:28:32.368Z,625
2016-05-17T10:29:32.510Z,575
2016-05-17T10:30:32.512Z,545
2016-05-17T10:31:32.157Z,545
2016-05-17T10:32:32.268Z,570
2016-05-17T10:33:46.521Z,545
2016-05-17T10:34:31.759Z,535
2016-05-17T10:35:32.042Z,525
2016-05-17T10:36:32.669Z,565
2016-05-17T10:37:32.610Z,605
2016-05-17T10:38:31.628Z,620
2016-05-17T10:39:32.240Z,660
2016-05-17T10:40:32.228Z,765
2016-05-17T10:41:31.574Z,860
2016-05-17T10:42:31.998Z,865
2016-05-17T10:43:32.204Z,855
2016-05-17T10:44:32.129Z,1010
2016-05-17T10:45:32.319Z,1310
2016-05-17T10:46:32.056Z,1645
2016-05-17T10:48:31.999Z,1110
2016-05-17T10:49:31.549Z,1145
2016-05-17T10:50:31.302Z,920
2016-05-17T10:51:32.320Z,735
2016-05-17T10:52:31.775Z,730
2016-05-17T10:53:31.872Z,705
2016-05-17T10:54:31.702Z,730
2016-05-17T10:55:31.846Z,665
2016-05-17T10:56:31.208Z,670
2016-05-17T10:57:31.757Z,660
2016-05-17T10:58:31.588Z,655
2016-05-17T10:59:31.701Z,650
2016-05-17T11:00:31.735Z,635
2016-05-17T11:01:45.784Z,580
2016-05-17T11:02:31.474Z,535
2016-05-17T11:03:45.711Z,500
2016-05-17T11:04:31.589Z,535
2016-05-17T11:05:31.545Z,560
2016-05-17T11:06:31.531Z,595
2016-05-17T11:07:31.753Z,620
2016-05-17T11:08:31.146Z,625
2016-05-17T11:09:30.853Z,600
2016-05-17T11:10:31.245Z,550
2016-05-17T11:11:31.373Z,480
2016-05-17T11:12:31.360Z,435
2016-05-17T11:13:31.331Z,405
2016-05-17T11:14:31.131Z,390
2016-05-17T11:15:31.508Z,380
2016-05-17T11:16:31.089Z,355
2016-05-17T11:17:31.045Z,365
2016-05-17T11:18:31.189Z,440
2016-05-17T11:19:31.192Z,450
2016-05-17T11:20:31.133Z,420
2016-05-17T11:21:31.196Z,405
2016-05-17T11:22:31.371Z,400
2016-05-17T11:23:31.047Z,430
2016-05-17T11:24:31.064Z,455
2016-05-17T11:25:30.989Z,460
2016-05-17T11:26:30.961Z,450
2016-05-17T11:27:30.932Z,440
2016-05-17T11:28:30.151Z,440
2016-05-17T11:29:30.921Z,425
2016-05-17T11:30:30.909Z,440
2016-05-17T11:31:30.174Z,440
2016-05-17T11:32:30.805Z,430
2016-05-17T11:33:30.604Z,405
2016-05-17T11:34:30.135Z,390
2016-05-17T11:35:30.704Z,375
2016-05-17T11:36:30.690Z,365
2016-05-17T11:37:31.020Z,350
2016-05-17T11:38:30.505Z,345
2016-05-17T11:39:30.431Z,365
2016-05-17T11:40:30.401Z,385
2016-05-17T11:41:30.529Z,395
2016-05-17T11:42:30.345Z,365
2016-05-17T11:43:30.456Z,350
2016-05-17T11:44:30.428Z,350
2016-05-17T11:45:30.430Z,355
2016-05-17T11:46:30.355Z,370
2016-05-17T11:47:30.202Z,390
2016-05-17T11:48:30.330Z,410
2016-05-17T11:49:29.660Z,420
2016-05-17T11:50:30.256Z,415
2016-05-17T11:51:30.228Z,430
2016-05-17T11:52:30.574Z,480
2016-05-17T11:53:29.593Z,520
2016-05-17T11:54:29.408Z,535
2016-05-17T11:55:29.488Z,535
2016-05-17T11:56:30.085Z,560
2016-05-17T11:58:29.637Z,610
2016-05-17T11:59:30.016Z,620
2016-05-17T12:00:29.347Z,635
2016-05-17T12:01:29.957Z,645
2016-05-17T12:02:29.913Z,645
2016-05-17T12:03:29.916Z,645
2016-05-17T12:04:29.701Z,625
2016-05-17T12:05:29.671Z,615
2016-05-17T12:06:30.004Z,620
2016-05-17T12:07:30.177Z,610
2016-05-17T12:08:29.789Z,610
2016-05-17T12:09:29.776Z,615
2016-05-17T12:10:43.828Z,610
2016-05-17T12:11:29.500Z,600
2016-05-17T12:12:29.675Z,590
2016-05-17T12:13:28.818Z,610
2016-05-17T12:14:29.571Z,580
2016-05-17T12:15:29.386Z,540
2016-05-17T12:16:29.514Z,520
2016-05-17T12:17:29.439Z,505
2016-05-17T12:18:28.847Z,510
2016-05-17T12:19:28.834Z,535
2016-05-17T12:20:29.416Z,555
2016-05-17T12:21:29.903Z,545
2016-05-17T12:22:29.389Z,530
2016-05-17T12:23:29.314Z,515
2016-05-17T12:24:29.301Z,515
2016-05-17T12:25:29.272Z,495
2016-05-17T12:26:29.119Z,485
2016-05-17T12:27:28.481Z,465
2016-05-17T12:28:43.330Z,445
2016-05-17T12:29:29.174Z,440
2016-05-17T12:30:29.130Z,425
2016-05-17T12:31:28.789Z,410
2016-05-17T12:32:28.463Z,420
2016-05-17T12:33:29.044Z,425
2016-05-17T12:34:29.016Z,425
2016-05-17T12:35:28.831Z,440
2016-05-17T12:36:28.974Z,450
2016-05-17T12:37:29.070Z,470
2016-05-17T12:38:28.901Z,485
2016-05-17T12:39:28.717Z,480
2016-05-17T12:40:28.688Z,480
2016-05-17T12:41:28.815Z,480
2016-05-17T12:42:28.850Z,475
2016-05-17T12:43:29.009Z,460
2016-05-17T12:44:28.746Z,460
2016-05-17T12:45:28.545Z,465
2016-05-17T12:46:28.720Z,460
2016-05-17T12:47:28.645Z,465
2016-05-17T12:48:28.006Z,475
2016-05-17T12:49:27.977Z,480
2016-05-17T12:50:28.605Z,485
2016-05-17T12:51:28.374Z,485
2016-05-17T12:52:27.908Z,490
2016-05-17T12:53:28.488Z,480
2016-05-17T12:54:28.460Z,470
2016-05-17T12:55:28.431Z,465
2016-05-17T12:56:28.231Z,465
2016-05-17T12:57:28.375Z,475
2016-05-17T12:58:27.705Z,475
2016-05-17T12:59:28.598Z,475
2016-05-17T13:00:28.273Z,485
2016-05-17T13:01:27.635Z,495
2016-05-17T13:02:28.075Z,500
2016-05-17T13:03:28.266Z,505
2016-05-17T13:04:28.018Z,510
2016-05-17T13:05:28.068Z,510
2016-05-17T13:06:27.508Z,510
2016-05-17T13:07:26.995Z,520
2016-05-17T13:08:27.904Z,545
2016-05-17T13:09:27.890Z,545
2016-05-17T13:10:28.003Z,540
2016-05-17T13:11:27.974Z,490
2016-05-17T13:12:27.821Z,465
2016-05-17T13:13:27.620Z,440
2016-05-17T13:14:27.951Z,420
2016-05-17T13:15:27.720Z,430
2016-05-17T13:16:27.238Z,440
2016-05-17T13:17:27.226Z,440
2016-05-17T13:18:27.790Z,445
2016-05-17T13:19:27.761Z,460
2016-05-17T13:20:27.717Z,465
2016-05-17T13:21:27.705Z,460
2016-05-17T13:22:28.004Z,455
2016-05-17T13:23:27.647Z,430
2016-05-17T13:24:27.666Z,415
2016-05-17T13:25:28.043Z,405
2016-05-17T13:26:27.578Z,405
2016-05-17T13:27:27.533Z,405
2016-05-17T13:28:27.349Z,395
2016-05-17T13:29:27.491Z,380
2016-05-17T13:30:27.463Z,345
2016-05-17T13:31:27.371Z,340
2016-05-17T13:32:27.421Z,340
2016-05-17T13:33:27.393Z,340
2016-05-17T13:34:27.349Z,355
2016-05-17T13:35:27.179Z,375
2016-05-17T13:36:27.354Z,360
2016-05-17T13:37:26.341Z,345
2016-05-17T13:38:26.626Z,330
2016-05-17T13:39:27.206Z,315
2016-05-17T13:40:27.193Z,305
2016-05-17T13:41:27.165Z,285
2016-05-17T13:42:27.027Z,295
2016-05-17T13:43:26.951Z,325
2016-05-17T13:44:27.079Z,365
2016-05-17T13:45:27.066Z,340
2016-05-17T13:46:27.037Z,350
2016-05-17T13:47:26.353Z,395
2016-05-17T13:48:26.418Z,395
2016-05-17T13:49:26.952Z,370
2016-05-17T13:50:26.908Z,315
2016-05-17T13:51:26.879Z,305
2016-05-17T13:52:26.928Z,285
2016-05-17T13:53:27.134Z,275
2016-05-17T13:54:26.794Z,280
2016-05-17T13:55:26.781Z,270
2016-05-17T13:56:26.595Z,235
2016-05-17T13:57:25.755Z,225
2016-05-17T13:58:25.944Z,245
2016-05-17T13:59:26.058Z,265
2016-05-17T14:00:25.685Z,275
2016-05-17T14:01:25.812Z,315
2016-05-17T14:02:25.783Z,330
2016-05-17T14:03:25.755Z,310
2016-05-17T14:04:25.571Z,295
2016-05-17T14:05:25.557Z,295
2016-05-17T14:06:25.951Z,290